createdAt,value
2022-10-06T00:05:31.644Z,3.30
2022-10-06T00:19:31.643Z,3.40
2022-10-06T00:33:31.645Z,3.20
2022-10-06T00:47:31.661Z,3.25
2022-10-06T01:01:31.834Z,2.90
2022-10-06T01:15:31.978Z,3.40
2022-10-06T01:29:31.930Z,3.00
2022-10-06T01:43:31.960Z,2.80
2022-10-06T01:57:31.954Z,2.90
2022-10-06T02:11:31.977Z,2.70
2022-10-06T02:25:32.000Z,2.60
2022-10-06T02:39:31.980Z,2.60
2022-10-06T02:53:32.019Z,2.50
2022-10-06T03:07:32.136Z,2.70
2022-10-06T03:21:32.110Z,2.40
2022-10-06T03:35:32.085Z,2.50
2022-10-06T03:49:32.094Z,2.40
2022-10-06T04:03:32.203Z,2.30
2022-10-06T04:17:32.245Z,2.80
2022-10-06T04:31:32.258Z,2.20
2022-10-06T04:45:32.266Z,2.40
2022-10-06T04:59:32.212Z,2.40
2022-10-06T05:13:32.221Z,2.20
2022-10-06T05:28:32.801Z,3.10
2022-10-06T05:43:32.230Z,5.50
2022-10-06T05:58:32.464Z,4.40
2022-10-06T06:13:32.264Z,4.40
2022-10-06T06:28:32.624Z,23.60
2022-10-06T06:43:32.442Z,22.80
2022-10-06T06:58:32.703Z,21.20
2022-10-06T07:13:32.269Z,18.40
2022-10-06T07:28:32.348Z,20.00
2022-10-06T07:43:32.250Z,19.20
2022-10-06T07:58:32.278Z,16.30
2022-10-06T08:13:32.313Z,18.10
2022-10-06T08:28:32.347Z,17.80
2022-10-06T08:43:32.295Z,15.30
2022-10-06T08:58:33.241Z,14.80
2022-10-06T09:13:32.288Z,14.10
2022-10-06T09:28:32.365Z,12.50
2022-10-06T09:43:32.384Z,11.00
2022-10-06T09:58:32.322Z,10.90
2022-10-06T10:13:32.317Z,8.90
2022-10-06T10:28:32.322Z,9.45
2022-10-06T10:43:32.331Z,7.25
2022-10-06T10:58:37.066Z,8.50
2022-10-06T11:12:27.570Z,6.85
2022-10-06T11:26:27.388Z,6.50
2022-10-06T11:41:27.482Z,5.20
2022-10-06T11:56:27.453Z,7.90
2022-10-06T12:11:27.528Z,7.80
2022-10-06T12:26:27.532Z,7.60
2022-10-06T12:41:27.714Z,5.70
2022-10-06T12:56:28.814Z,4.50
2022-10-06T13:11:27.682Z,16.60
2022-10-06T13:26:27.798Z,8.00
2022-10-06T13:41:27.990Z,6.00
2022-10-06T14:06:04.222Z,6.50
2022-10-06T14:21:04.846Z,5.80
2022-10-06T14:36:05.365Z,4.20
2022-10-06T14:51:05.351Z,3.90
2022-10-06T15:06:05.357Z,3.90
2022-10-06T15:21:05.421Z,3.80
2022-10-06T15:36:05.745Z,4.00
2022-10-06T15:51:06.321Z,4.20
2022-10-06T16:06:06.606Z,4.70
2022-10-06T16:22:07.095Z,4.00
2022-10-06T16:37:06.780Z,4.30
2022-10-06T16:52:06.782Z,4.60
2022-10-06T17:07:06.709Z,4.80
2022-10-06T17:22:06.894Z,5.20
2022-10-06T17:36:07.036Z,5.10
2022-10-06T17:50:06.973Z,5.80
2022-10-06T18:04:06.946Z,5.80
2022-10-06T18:18:06.982Z,7.30
2022-10-06T18:46:07.303Z,5.10
2022-10-06T19:00:07.152Z,6.50
2022-10-06T19:14:07.191Z,6.30
2022-10-06T19:28:08.002Z,5.20
2022-10-06T19:42:07.800Z,4.10
2022-10-06T19:56:07.418Z,3.90
2022-10-06T20:10:07.489Z,4.60
2022-10-06T20:24:07.432Z,3.80
2022-10-06T20:38:07.490Z,4.10
2022-10-06T20:52:07.459Z,6.00
2022-10-06T21:06:07.459Z,8.70
2022-10-06T21:20:07.449Z,6.70
2022-10-06T21:34:07.459Z,7.00
2022-10-06T21:48:07.488Z,8.00
2022-10-06T22:02:07.632Z,7.80
2022-10-06T22:16:07.698Z,6.70
2022-10-06T22:30:07.621Z,6.70
2022-10-06T22:44:07.639Z,6.70
2022-10-06T22:58:07.665Z,5.80
2022-10-06T23:12:07.658Z,4.00
2022-10-06T23:26:07.638Z,4.00
2022-10-06T23:40:07.746Z,3.80
2022-10-06T23:54:07.706Z,3.80
